createdAt,value
2022-09-21T11:21:53.932Z,16.35
2022-09-21T11:24:26.343Z,16.36
2022-09-21T11:26:55.719Z,16.29
2022-09-21T11:32:13.981Z,16.89
2022-09-21T11:35:18.624Z,18.49
2022-09-21T11:37:58.457Z,19.97
2022-09-21T11:40:50.775Z,19.30
2022-09-21T11:43:25.682Z,18.26
2022-09-21T11:46:00.328Z,17.59
2022-09-21T11:48:48.291Z,16.90
2022-09-21T11:51:25.284Z,16.32
2022-09-21T11:54:08.461Z,16.06
2022-09-21T11:56:41.124Z,15.87
2022-09-21T11:59:21.365Z,15.86
2022-09-21T12:01:57.958Z,15.84
2022-09-21T12:04:34.137Z,15.94
2022-09-21T12:07:13.106Z,15.87
2022-09-21T12:09:51.170Z,15.75
2022-09-21T12:12:20.879Z,15.73
2022-09-21T12:14:52.383Z,15.67
2022-09-21T12:17:23.388Z,15.59
2022-09-21T12:19:53.292Z,15.50
2022-09-21T12:22:23.401Z,15.30
2022-09-21T12:24:53.629Z,15.10
2022-09-21T12:27:27.384Z,14.99
2022-09-21T12:29:57.469Z,14.83
2022-09-21T12:32:27.682Z,14.87
2022-09-21T12:34:58.898Z,14.80
2022-09-21T12:37:27.969Z,15.07
2022-09-21T12:40:00.401Z,15.26
2022-09-21T12:42:31.512Z,15.53
2022-09-21T12:45:02.611Z,15.84
2022-09-21T12:47:33.978Z,16.18
2022-09-21T12:50:05.223Z,16.21
2022-09-21T12:52:33.154Z,16.13
2022-09-21T12:55:05.981Z,16.11
2022-09-21T12:58:13.676Z,15.79
2022-09-21T13:00:41.707Z,15.41
2022-09-21T13:03:14.330Z,15.12
2022-09-21T13:05:47.596Z,14.76
2022-09-21T13:08:16.145Z,14.43
2022-09-21T13:10:51.770Z,14.07
2022-09-21T13:13:29.039Z,13.96
2022-09-21T13:15:59.175Z,13.72
2022-09-21T13:18:30.489Z,13.57
2022-09-21T13:21:01.395Z,13.49
2022-09-21T13:23:31.434Z,13.29
2022-09-21T13:26:08.068Z,12.95
2022-09-21T13:29:17.259Z,12.88
2022-09-21T13:31:57.950Z,13.15
2022-09-21T13:34:36.420Z,13.35
2022-09-21T13:37:31.396Z,13.74
2022-09-21T13:40:38.890Z,13.94
2022-09-21T13:43:48.150Z,13.97
2022-09-21T13:46:46.360Z,14.08
2022-09-21T13:49:27.156Z,14.25
2022-09-21T13:51:57.587Z,14.20
2022-09-21T13:54:26.822Z,13.89
2022-09-21T13:56:59.900Z,13.81
2022-09-21T13:59:29.225Z,13.95
2022-09-21T14:01:58.130Z,13.99
2022-09-21T14:04:27.822Z,13.97
2022-09-21T14:06:56.597Z,13.85
2022-09-21T14:09:27.608Z,13.82
2022-09-21T14:11:57.647Z,13.80
2022-09-21T14:14:29.822Z,13.74
2022-09-21T14:16:59.002Z,13.72
2022-09-21T14:20:07.742Z,13.72
2022-09-21T14:22:44.110Z,13.86
2022-09-21T14:25:52.205Z,14.04
2022-09-21T14:28:26.505Z,14.14
2022-09-21T14:30:57.680Z,14.22
2022-09-21T14:33:32.680Z,14.29
2022-09-21T14:36:02.203Z,14.43
2022-09-21T14:38:31.080Z,14.50
2022-09-21T14:41:00.832Z,14.44
2022-09-21T14:43:29.845Z,14.33
2022-09-21T14:46:11.786Z,14.20
2022-09-21T14:48:43.111Z,14.14
2022-09-21T14:51:21.709Z,14.04
2022-09-21T14:54:04.189Z,13.93
2022-09-21T14:56:39.086Z,13.89
2022-09-21T14:59:29.522Z,13.87
2022-09-21T15:02:02.487Z,13.81
2022-09-21T15:04:45.329Z,13.83
2022-09-21T15:07:42.275Z,13.83
2022-09-21T15:10:39.826Z,13.86
2022-09-21T15:13:12.808Z,13.87
2022-09-21T15:15:42.847Z,13.92
2022-09-21T15:18:20.461Z,13.93
2022-09-21T15:21:01.477Z,13.88
2022-09-21T15:23:30.272Z,13.90
2022-09-21T15:26:00.422Z,13.86
2022-09-21T15:28:32.706Z,13.85
2022-09-21T15:31:07.523Z,13.87
2022-09-21T15:33:43.843Z,13.86
2022-09-21T15:36:12.321Z,13.84
2022-09-21T15:38:42.142Z,13.70
2022-09-21T15:41:11.808Z,13.51
2022-09-21T15:43:39.978Z,13.45
2022-09-21T15:46:08.254Z,13.30
2022-09-21T15:48:36.856Z,13.18
2022-09-21T15:51:09.309Z,13.20
2022-09-21T15:53:41.041Z,13.22
2022-09-21T15:56:14.031Z,13.18
2022-09-21T15:58:42.588Z,13.19
2022-09-21T16:01:11.531Z,13.03
2022-09-21T16:03:40.024Z,12.98
2022-09-21T16:06:27.080Z,12.91
2022-09-21T16:08:55.126Z,12.87
2022-09-21T16:11:35.340Z,12.77
2022-09-21T16:14:23.630Z,12.75
2022-09-21T16:17:23.743Z,12.68
2022-09-21T16:20:23.410Z,12.65
2022-09-21T16:22:54.824Z,12.65
2022-09-21T16:25:32.693Z,12.51
2022-09-21T16:28:01.755Z,12.56
2022-09-21T16:30:47.226Z,12.46
2022-09-21T16:33:37.876Z,12.35
2022-09-21T16:36:06.714Z,12.17
2022-09-21T16:38:36.392Z,12.00
2022-09-21T16:41:04.373Z,11.87
2022-09-21T16:43:32.520Z,11.74
2022-09-21T16:46:02.216Z,11.65
2022-09-21T16:48:30.169Z,11.56
2022-09-21T16:50:58.127Z,11.54
2022-09-21T16:53:27.064Z,11.45
2022-09-21T16:55:56.611Z,11.31
2022-09-21T16:58:24.760Z,11.22
2022-09-21T17:00:56.205Z,11.09
2022-09-21T17:03:24.340Z,11.01
2022-09-21T17:05:52.268Z,10.93
2022-09-21T17:08:20.944Z,10.82
2022-09-21T17:10:48.915Z,10.78
2022-09-21T17:13:20.594Z,10.71
2022-09-21T17:15:48.931Z,10.67
2022-09-21T17:18:17.131Z,10.65
2022-09-21T17:20:45.766Z,10.56
2022-09-21T17:23:13.974Z,10.56
2022-09-21T17:25:41.908Z,10.54
2022-09-21T17:28:13.825Z,10.55
2022-09-21T17:30:45.983Z,10.54
2022-09-21T17:33:13.924Z,10.52
2022-09-21T17:35:42.480Z,10.50
2022-09-21T17:38:14.349Z,10.35
2022-09-21T17:40:43.467Z,10.37
2022-09-21T17:43:21.584Z,10.33
2022-09-21T17:45:52.859Z,10.29
2022-09-21T17:48:22.390Z,10.32
2022-09-21T17:50:50.924Z,10.26
2022-09-21T17:53:37.555Z,10.20
2022-09-21T17:56:15.518Z,10.18
2022-09-21T17:58:46.760Z,10.14
2022-09-21T18:01:22.302Z,10.17
2022-09-21T18:03:50.995Z,10.14
2022-09-21T18:06:19.241Z,10.15
2022-09-21T18:08:47.748Z,10.21
2022-09-21T18:11:28.129Z,10.22
2022-09-21T18:14:01.158Z,10.25
2022-09-21T18:16:33.600Z,10.27
2022-09-21T18:19:23.302Z,10.29
2022-09-21T18:21:52.671Z,10.30
2022-09-21T18:24:22.035Z,10.40
2022-09-21T18:26:52.290Z,10.41
2022-09-21T18:29:46.518Z,10.39
2022-09-21T18:32:42.064Z,10.41
2022-09-21T18:35:19.608Z,10.37
2022-09-21T18:37:55.192Z,10.46
2022-09-21T18:40:26.277Z,10.44
2022-09-21T18:42:56.501Z,10.52
2022-09-21T18:45:27.177Z,10.54
2022-09-21T18:48:06.820Z,10.40
2022-09-21T18:50:37.826Z,10.58
2022-09-21T18:53:12.425Z,10.60
2022-09-21T18:55:41.219Z,10.62
2022-09-21T18:58:10.344Z,10.71
2022-09-21T19:00:38.729Z,10.75
2022-09-21T19:03:19.222Z,10.87
2022-09-21T19:05:54.761Z,10.99
2022-09-21T19:08:26.258Z,11.11
2022-09-21T19:10:56.089Z,11.15
2022-09-21T19:13:34.173Z,11.20
2022-09-21T19:16:10.213Z,11.21
2022-09-21T19:18:43.200Z,11.23
2022-09-21T19:21:16.869Z,11.12
2022-09-21T19:24:00.280Z,11.24
2022-09-21T19:26:29.707Z,11.22
2022-09-21T19:29:05.330Z,11.33
2022-09-21T19:31:36.087Z,11.31
2022-09-21T19:34:11.619Z,11.29
2022-09-21T19:36:40.179Z,11.19
2022-09-21T19:39:09.455Z,11.18
2022-09-21T19:41:42.975Z,11.12
2022-09-21T19:44:23.125Z,11.13
2022-09-21T19:47:06.653Z,11.08
2022-09-21T19:49:40.364Z,11.02
2022-09-21T19:52:09.767Z,10.96
2022-09-21T19:54:55.512Z,10.94
2022-09-21T19:57:41.437Z,10.90
2022-09-21T20:00:11.028Z,10.86
2022-09-21T20:02:42.965Z,10.81
2022-09-21T20:05:15.426Z,10.73
2022-09-21T20:07:46.776Z,10.73
2022-09-21T20:10:28.962Z,10.69
2022-09-21T20:13:01.384Z,10.62
2022-09-21T20:15:33.716Z,10.58
2022-09-21T20:18:04.213Z,10.57
2022-09-21T20:20:34.009Z,10.59
2022-09-21T20:23:02.493Z,10.57
2022-09-21T20:25:33.480Z,10.57
2022-09-21T20:28:02.041Z,10.50
2022-09-21T20:30:32.779Z,10.44
2022-09-21T20:33:01.999Z,10.40
2022-09-21T20:35:30.699Z,10.36
2022-09-21T20:38:02.574Z,10.31
2022-09-21T20:40:32.346Z,10.26
2022-09-21T20:43:01.118Z,10.24
2022-09-21T20:45:29.291Z,10.03
2022-09-21T20:48:13.044Z,10.18
2022-09-21T20:50:41.938Z,10.14
2022-09-21T20:53:11.270Z,10.12
2022-09-21T20:55:39.493Z,10.08
2022-09-21T20:58:07.419Z,10.06
2022-09-21T21:00:35.621Z,10.04
2022-09-21T21:03:04.489Z,10.03
2022-09-21T21:05:32.854Z,10.05
2022-09-21T21:08:00.767Z,10.05
2022-09-21T21:10:30.046Z,9.96
2022-09-21T21:12:58.711Z,10.00
2022-09-21T21:15:26.738Z,9.99
2022-09-21T21:17:54.719Z,9.97
2022-09-21T21:20:22.729Z,10.00
2022-09-21T21:22:51.187Z,10.00
2022-09-21T21:25:19.107Z,10.05
2022-09-21T21:27:48.407Z,10.11
2022-09-21T21:30:16.437Z,10.15
2022-09-21T21:32:44.473Z,10.18
2022-09-21T21:35:12.422Z,10.22
2022-09-21T21:37:40.442Z,10.28
2022-09-21T21:40:10.172Z,10.23
2022-09-21T21:42:38.233Z,10.30
2022-09-21T21:45:09.929Z,10.36
2022-09-21T21:47:40.521Z,10.38
2022-09-21T21:50:09.833Z,10.44
2022-09-21T21:52:37.785Z,10.46
2022-09-21T21:55:06.540Z,10.43
2022-09-21T21:57:34.870Z,10.40
2022-09-21T22:00:03.323Z,10.50
2022-09-21T22:02:32.885Z,10.58
2022-09-21T22:05:00.885Z,10.63
2022-09-21T22:07:28.842Z,10.64
2022-09-21T22:09:56.768Z,10.66
2022-09-21T22:12:26.257Z,10.68
2022-09-21T22:14:54.201Z,10.76
2022-09-21T22:17:22.166Z,10.77
2022-09-21T22:19:51.493Z,10.77
2022-09-21T22:22:19.424Z,10.74
2022-09-21T22:24:48.085Z,10.69
2022-09-21T22:27:16.512Z,10.65
2022-09-21T22:29:45.011Z,10.59
2022-09-21T22:32:12.966Z,10.57
2022-09-21T22:34:40.931Z,10.55
2022-09-21T22:37:10.267Z,10.48
2022-09-21T22:39:38.192Z,10.40
2022-09-21T22:42:06.278Z,10.41
2022-09-21T22:44:34.189Z,10.46
2022-09-21T22:47:02.150Z,10.36
2022-09-21T22:49:30.187Z,10.39
2022-09-21T22:51:58.149Z,10.43
2022-09-21T22:54:27.772Z,10.43
2022-09-21T22:56:55.708Z,10.44
2022-09-21T22:59:23.635Z,10.48
2022-09-21T23:01:51.575Z,10.52
2022-09-21T23:04:21.215Z,10.51
2022-09-21T23:06:49.652Z,10.47
2022-09-21T23:09:19.679Z,10.47
2022-09-21T23:11:52.163Z,10.43
2022-09-21T23:14:20.100Z,10.42
2022-09-21T23:16:48.080Z,10.38
2022-09-21T23:19:16.520Z,10.36
2022-09-21T23:21:45.277Z,10.33
2022-09-21T23:24:13.300Z,10.26
2022-09-21T23:26:41.231Z,10.24
2022-09-21T23:29:13.656Z,10.21
2022-09-21T23:31:44.957Z,10.19
2022-09-21T23:34:13.849Z,10.11
2022-09-21T23:36:41.937Z,10.06
2022-09-21T23:39:11.421Z,10.05
2022-09-21T23:41:39.336Z,10.00
2022-09-21T23:44:07.436Z,9.94
2022-09-21T23:46:37.983Z,9.91
2022-09-21T23:49:06.273Z,9.88
2022-09-21T23:51:34.275Z,9.81
2022-09-21T23:54:02.389Z,9.77
2022-09-21T23:56:30.566Z,9.74
2022-09-21T23:58:58.941Z,9.67
